sensor_id;sensor_type;location;lat;lon;timestamp;P1;durP1;ratioP1;P2;durP2;ratioP2
39524;SDS011;25203;50.754;6.978;2022-07-23T00:01:46;16.63;;;13.60;;
39524;SDS011;25203;50.754;6.978;2022-07-23T00:03:47;17.25;;;13.55;;
39524;SDS011;25203;50.754;6.978;2022-07-23T00:05:48;12.90;;;11.32;;
39524;SDS011;25203;50.754;6.978;2022-07-23T00:07:49;14.80;;;11.65;;
39524;SDS011;25203;50.754;6.978;2022-07-23T00:09:50;16.63;;;12.55;;
39524;SDS011;25203;50.754;6.978;2022-07-23T00:11:50;13.95;;;11.85;;
39524;SDS011;25203;50.754;6.978;2022-07-23T00:13:51;16.85;;;13.35;;
39524;SDS011;25203;50.754;6.978;2022-07-23T00:15:51;17.10;;;14.02;;
39524;SDS011;25203;50.754;6.978;2022-07-23T00:17:52;14.55;;;12.70;;
39524;SDS011;25203;50.754;6.978;2022-07-23T00:19:53;17.83;;;13.45;;
39524;SDS011;25203;50.754;6.978;2022-07-23T00:21:53;17.30;;;14.45;;
39524;SDS011;25203;50.754;6.978;2022-07-23T00:23:54;16.75;;;14.35;;
39524;SDS011;25203;50.754;6.978;2022-07-23T00:25:55;17.98;;;13.73;;
39524;SDS011;25203;50.754;6.978;2022-07-23T00:27:56;18.92;;;14.98;;
39524;SDS011;25203;50.754;6.978;2022-07-23T00:29:57;19.10;;;14.68;;
39524;SDS011;25203;50.754;6.978;2022-07-23T00:31:58;20.08;;;16.02;;
39524;SDS011;25203;50.754;6.978;2022-07-23T00:33:59;25.88;;;18.35;;
39524;SDS011;25203;50.754;6.978;2022-07-23T00:36:01;25.67;;;17.67;;
39524;SDS011;25203;50.754;6.978;2022-07-23T00:38:02;22.02;;;16.92;;
39524;SDS011;25203;50.754;6.978;2022-07-23T00:40:04;24.65;;;18.27;;
39524;SDS011;25203;50.754;6.978;2022-07-23T00:42:06;25.40;;;17.35;;
39524;SDS011;25203;50.754;6.978;2022-07-23T00:46:21;25.17;;;19.70;;
39524;SDS011;25203;50.754;6.978;2022-07-23T00:48:22;21.38;;;17.15;;
39524;SDS011;25203;50.754;6.978;2022-07-23T00:50:23;23.55;;;19.13;;
39524;SDS011;25203;50.754;6.978;2022-07-23T00:52:24;25.33;;;20.13;;
39524;SDS011;25203;50.754;6.978;2022-07-23T00:54:25;26.50;;;20.25;;
39524;SDS011;25203;50.754;6.978;2022-07-23T00:56:27;28.52;;;20.40;;
39524;SDS011;25203;50.754;6.978;2022-07-23T00:58:27;29.08;;;19.75;;
39524;SDS011;25203;50.754;6.978;2022-07-23T01:00:28;31.55;;;20.83;;
39524;SDS011;25203;50.754;6.978;2022-07-23T01:02:29;20.92;;;17.10;;
39524;SDS011;25203;50.754;6.978;2022-07-23T01:04:30;25.67;;;19.60;;
39524;SDS011;25203;50.754;6.978;2022-07-23T01:06:34;28.50;;;20.63;;
39524;SDS011;25203;50.754;6.978;2022-07-23T01:08:36;25.95;;;20.65;;
39524;SDS011;25203;50.754;6.978;2022-07-23T01:10:37;24.75;;;19.95;;
39524;SDS011;25203;50.754;6.978;2022-07-23T01:12:37;26.38;;;19.30;;
39524;SDS011;25203;50.754;6.978;2022-07-23T01:14:38;22.55;;;17.35;;
39524;SDS011;25203;50.754;6.978;2022-07-23T01:16:39;21.65;;;17.00;;
39524;SDS011;25203;50.754;6.978;2022-07-23T01:18:41;23.25;;;15.93;;
39524;SDS011;25203;50.754;6.978;2022-07-23T01:20:41;25.50;;;17.52;;
39524;SDS011;25203;50.754;6.978;2022-07-23T01:22:42;20.48;;;16.52;;
39524;SDS011;25203;50.754;6.978;2022-07-23T01:24:44;22.25;;;16.80;;
39524;SDS011;25203;50.754;6.978;2022-07-23T01:26:45;25.52;;;17.45;;
39524;SDS011;25203;50.754;6.978;2022-07-23T01:28:47;26.08;;;18.55;;
39524;SDS011;25203;50.754;6.978;2022-07-23T01:30:47;24.45;;;17.85;;
39524;SDS011;25203;50.754;6.978;2022-07-23T01:32:48;25.10;;;19.48;;
39524;SDS011;25203;50.754;6.978;2022-07-23T01:34:49;26.27;;;19.92;;
39524;SDS011;25203;50.754;6.978;2022-07-23T01:36:50;26.52;;;19.00;;
39524;SDS011;25203;50.754;6.978;2022-07-23T01:38:50;28.50;;;19.85;;
39524;SDS011;25203;50.754;6.978;2022-07-23T01:40:51;26.15;;;17.38;;
39524;SDS011;25203;50.754;6.978;2022-07-23T01:42:52;27.58;;;21.75;;
39524;SDS011;25203;50.754;6.978;2022-07-23T01:44:52;26.20;;;19.75;;
39524;SDS011;25203;50.754;6.978;2022-07-23T01:46:53;24.98;;;18.30;;
39524;SDS011;25203;50.754;6.978;2022-07-23T01:48:55;25.88;;;19.13;;
39524;SDS011;25203;50.754;6.978;2022-07-23T01:50:56;28.65;;;19.38;;
39524;SDS011;25203;50.754;6.978;2022-07-23T01:52:56;25.95;;;19.77;;
39524;SDS011;25203;50.754;6.978;2022-07-23T01:54:57;30.42;;;21.13;;
39524;SDS011;25203;50.754;6.978;2022-07-23T01:56:58;26.17;;;19.40;;
39524;SDS011;25203;50.754;6.978;2022-07-23T01:58:59;22.27;;;17.05;;
39524;SDS011;25203;50.754;6.978;2022-07-23T02:01:00;24.67;;;18.50;;
39524;SDS011;25203;50.754;6.978;2022-07-23T02:03:00;19.60;;;15.45;;
39524;SDS011;25203;50.754;6.978;2022-07-23T02:05:01;22.70;;;15.68;;
39524;SDS011;25203;50.754;6.978;2022-07-23T02:07:02;26.23;;;16.15;;
39524;SDS011;25203;50.754;6.978;2022-07-23T02:09:03;20.60;;;14.27;;
39524;SDS011;25203;50.754;6.978;2022-07-23T02:11:04;19.52;;;13.00;;
39524;SDS011;25203;50.754;6.978;2022-07-23T02:13:05;22.13;;;14.60;;
39524;SDS011;25203;50.754;6.978;2022-07-23T02:15:06;18.75;;;13.15;;
39524;SDS011;25203;50.754;6.978;2022-07-23T02:17:07;17.23;;;13.25;;
39524;SDS011;25203;50.754;6.978;2022-07-23T02:19:08;18.27;;;12.40;;
39524;SDS011;25203;50.754;6.978;2022-07-23T02:21:08;19.42;;;13.25;;
39524;SDS011;25203;50.754;6.978;2022-07-23T02:23:09;20.23;;;13.48;;
39524;SDS011;25203;50.754;6.978;2022-07-23T02:25:09;18.63;;;13.13;;
39524;SDS011;25203;50.754;6.978;2022-07-23T02:27:10;17.02;;;11.90;;
39524;SDS011;25203;50.754;6.978;2022-07-23T02:29:11;14.23;;;11.10;;
39524;SDS011;25203;50.754;6.978;2022-07-23T02:31:12;23.20;;;14.80;;
39524;SDS011;25203;50.754;6.978;2022-07-23T02:33:12;22.88;;;14.70;;
39524;SDS011;25203;50.754;6.978;2022-07-23T02:35:13;18.65;;;13.52;;
39524;SDS011;25203;50.754;6.978;2022-07-23T02:37:13;21.00;;;13.90;;
39524;SDS011;25203;50.754;6.978;2022-07-23T02:39:14;18.50;;;13.48;;
39524;SDS011;25203;50.754;6.978;2022-07-23T02:41:15;15.27;;;11.35;;
39524;SDS011;25203;50.754;6.978;2022-07-23T02:43:15;17.70;;;13.65;;
39524;SDS011;25203;50.754;6.978;2022-07-23T02:45:16;16.83;;;12.38;;
39524;SDS011;25203;50.754;6.978;2022-07-23T02:47:16;19.33;;;13.38;;
39524;SDS011;25203;50.754;6.978;2022-07-23T02:49:17;18.65;;;13.65;;
39524;SDS011;25203;50.754;6.978;2022-07-23T02:51:18;16.77;;;13.52;;
39524;SDS011;25203;50.754;6.978;2022-07-23T02:53:18;16.40;;;12.20;;
39524;SDS011;25203;50.754;6.978;2022-07-23T02:55:19;17.38;;;13.13;;
39524;SDS011;25203;50.754;6.978;2022-07-23T02:57:19;16.98;;;10.73;;
39524;SDS011;25203;50.754;6.978;2022-07-23T02:59:20;16.13;;;12.52;;
39524;SDS011;25203;50.754;6.978;2022-07-23T03:01:20;12.63;;;9.70;;
39524;SDS011;25203;50.754;6.978;2022-07-23T03:03:21;13.32;;;8.75;;
39524;SDS011;25203;50.754;6.978;2022-07-23T03:05:22;19.27;;;14.38;;
39524;SDS011;25203;50.754;6.978;2022-07-23T03:07:22;15.52;;;10.98;;
39524;SDS011;25203;50.754;6.978;2022-07-23T03:09:23;13.80;;;10.45;;
39524;SDS011;25203;50.754;6.978;2022-07-23T03:11:24;14.27;;;8.82;;
39524;SDS011;25203;50.754;6.978;2022-07-23T03:13:24;10.77;;;8.45;;
39524;SDS011;25203;50.754;6.978;2022-07-23T03:15:25;11.73;;;8.52;;
39524;SDS011;25203;50.754;6.978;2022-07-23T03:17:26;11.57;;;9.57;;
39524;SDS011;25203;50.754;6.978;2022-07-23T03:19:26;11.63;;;9.20;;
39524;SDS011;25203;50.754;6.978;2022-07-23T03:21:27;16.58;;;10.57;;
39524;SDS011;25203;50.754;6.978;2022-07-23T03:23:28;16.50;;;12.45;;
39524;SDS011;25203;50.754;6.978;2022-07-23T03:25:28;17.88;;;13.02;;
39524;SDS011;25203;50.754;6.978;2022-07-23T03:27:29;18.08;;;13.50;;
39524;SDS011;25203;50.754;6.978;2022-07-23T03:29:30;17.83;;;12.50;;
39524;SDS011;25203;50.754;6.978;2022-07-23T03:31:32;15.65;;;12.00;;
39524;SDS011;25203;50.754;6.978;2022-07-23T03:33:33;15.80;;;12.32;;
39524;SDS011;25203;50.754;6.978;2022-07-23T03:35:34;19.17;;;13.27;;
39524;SDS011;25203;50.754;6.978;2022-07-23T03:37:34;18.33;;;11.35;;
39524;SDS011;25203;50.754;6.978;2022-07-23T03:39:35;19.25;;;12.70;;
39524;SDS011;25203;50.754;6.978;2022-07-23T03:41:36;16.15;;;10.68;;
39524;SDS011;25203;50.754;6.978;2022-07-23T03:43:36;14.80;;;10.48;;
39524;SDS011;25203;50.754;6.978;2022-07-23T03:45:37;14.70;;;9.38;;
39524;SDS011;25203;50.754;6.978;2022-07-23T03:47:38;14.50;;;9.90;;
39524;SDS011;25203;50.754;6.978;2022-07-23T03:49:38;17.35;;;10.85;;
39524;SDS011;25203;50.754;6.978;2022-07-23T03:51:39;15.68;;;9.40;;
39524;SDS011;25203;50.754;6.978;2022-07-23T03:53:40;15.25;;;10.55;;
39524;SDS011;25203;50.754;6.978;2022-07-23T03:55:41;14.07;;;9.80;;
39524;SDS011;25203;50.754;6.978;2022-07-23T03:57:41;10.52;;;9.07;;
39524;SDS011;25203;50.754;6.978;2022-07-23T03:59:43;14.43;;;10.30;;
39524;SDS011;25203;50.754;6.978;2022-07-23T04:01:43;13.68;;;9.70;;
39524;SDS011;25203;50.754;6.978;2022-07-23T04:03:44;13.80;;;10.63;;
39524;SDS011;25203;50.754;6.978;2022-07-23T04:05:46;15.07;;;11.20;;
39524;SDS011;25203;50.754;6.978;2022-07-23T04:07:46;14.20;;;10.15;;
39524;SDS011;25203;50.754;6.978;2022-07-23T04:09:47;15.90;;;11.70;;
39524;SDS011;25203;50.754;6.978;2022-07-23T04:11:48;18.80;;;14.40;;
39524;SDS011;25203;50.754;6.978;2022-07-23T04:13:49;19.98;;;14.45;;
39524;SDS011;25203;50.754;6.978;2022-07-23T04:15:50;17.17;;;12.45;;
39524;SDS011;25203;50.754;6.978;2022-07-23T04:17:50;22.98;;;14.07;;
39524;SDS011;25203;50.754;6.978;2022-07-23T04:19:51;22.58;;;15.60;;
39524;SDS011;25203;50.754;6.978;2022-07-23T04:21:52;19.25;;;13.40;;
39524;SDS011;25203;50.754;6.978;2022-07-23T04:23:52;20.60;;;13.75;;
39524;SDS011;25203;50.754;6.978;2022-07-23T04:25:53;16.77;;;13.05;;
39524;SDS011;25203;50.754;6.978;2022-07-23T04:27:54;16.73;;;11.80;;
39524;SDS011;25203;50.754;6.978;2022-07-23T04:29:54;14.05;;;10.95;;
39524;SDS011;25203;50.754;6.978;2022-07-23T04:31:55;15.52;;;12.02;;
39524;SDS011;25203;50.754;6.978;2022-07-23T04:33:55;16.08;;;11.80;;
39524;SDS011;25203;50.754;6.978;2022-07-23T04:35:56;16.98;;;12.82;;
39524;SDS011;25203;50.754;6.978;2022-07-23T04:37:57;16.75;;;12.68;;
39524;SDS011;25203;50.754;6.978;2022-07-23T04:39:58;16.52;;;12.38;;
39524;SDS011;25203;50.754;6.978;2022-07-23T04:41:58;16.15;;;11.85;;
39524;SDS011;25203;50.754;6.978;2022-07-23T04:43:59;16.92;;;12.15;;
39524;SDS011;25203;50.754;6.978;2022-07-23T04:46:00;17.40;;;12.70;;
39524;SDS011;25203;50.754;6.978;2022-07-23T04:48:00;16.95;;;11.82;;
39524;SDS011;25203;50.754;6.978;2022-07-23T04:50:01;17.38;;;12.50;;
39524;SDS011;25203;50.754;6.978;2022-07-23T04:52:02;14.63;;;11.32;;
39524;SDS011;25203;50.754;6.978;2022-07-23T04:54:03;17.63;;;11.48;;
39524;SDS011;25203;50.754;6.978;2022-07-23T04:56:04;20.17;;;13.05;;
39524;SDS011;25203;50.754;6.978;2022-07-23T04:58:04;21.73;;;14.90;;
39524;SDS011;25203;50.754;6.978;2022-07-23T05:00:05;23.58;;;15.02;;
39524;SDS011;25203;50.754;6.978;2022-07-23T05:02:07;19.15;;;15.30;;
39524;SDS011;25203;50.754;6.978;2022-07-23T05:04:07;17.33;;;13.68;;
39524;SDS011;25203;50.754;6.978;2022-07-23T05:06:08;24.38;;;16.20;;
39524;SDS011;25203;50.754;6.978;2022-07-23T05:08:09;21.50;;;14.52;;
39524;SDS011;25203;50.754;6.978;2022-07-23T05:10:10;21.90;;;13.90;;
39524;SDS011;25203;50.754;6.978;2022-07-23T05:12:10;26.17;;;16.92;;
39524;SDS011;25203;50.754;6.978;2022-07-23T05:14:11;24.63;;;17.85;;
39524;SDS011;25203;50.754;6.978;2022-07-23T05:16:12;24.33;;;16.45;;
39524;SDS011;25203;50.754;6.978;2022-07-23T05:18:13;24.58;;;17.40;;
39524;SDS011;25203;50.754;6.978;2022-07-23T05:20:13;22.00;;;15.38;;
39524;SDS011;25203;50.754;6.978;2022-07-23T05:22:14;27.42;;;19.52;;
39524;SDS011;25203;50.754;6.978;2022-07-23T05:24:15;21.95;;;14.43;;
39524;SDS011;25203;50.754;6.978;2022-07-23T05:26:15;19.05;;;14.45;;
39524;SDS011;25203;50.754;6.978;2022-07-23T05:28:16;20.45;;;14.77;;
39524;SDS011;25203;50.754;6.978;2022-07-23T05:30:17;24.38;;;15.30;;
39524;SDS011;25203;50.754;6.978;2022-07-23T05:32:18;20.55;;;15.00;;
39524;SDS011;25203;50.754;6.978;2022-07-23T05:34:18;22.30;;;15.15;;
39524;SDS011;25203;50.754;6.978;2022-07-23T05:36:19;17.52;;;13.55;;
39524;SDS011;25203;50.754;6.978;2022-07-23T05:38:19;26.00;;;16.17;;
39524;SDS011;25203;50.754;6.978;2022-07-23T05:40:20;27.30;;;16.95;;
39524;SDS011;25203;50.754;6.978;2022-07-23T05:42:21;22.92;;;14.77;;
39524;SDS011;25203;50.754;6.978;2022-07-23T05:44:21;22.15;;;15.50;;
39524;SDS011;25203;50.754;6.978;2022-07-23T05:46:22;19.00;;;14.60;;
39524;SDS011;25203;50.754;6.978;2022-07-23T05:48:22;17.90;;;14.00;;
39524;SDS011;25203;50.754;6.978;2022-07-23T05:50:23;18.80;;;14.43;;
39524;SDS011;25203;50.754;6.978;2022-07-23T05:52:23;18.90;;;15.10;;
39524;SDS011;25203;50.754;6.978;2022-07-23T05:54:24;20.98;;;15.15;;
39524;SDS011;25203;50.754;6.978;2022-07-23T05:56:25;19.58;;;15.57;;
39524;SDS011;25203;50.754;6.978;2022-07-23T05:58:25;20.90;;;13.00;;
39524;SDS011;25203;50.754;6.978;2022-07-23T06:00:26;21.17;;;14.95;;
39524;SDS011;25203;50.754;6.978;2022-07-23T06:02:27;20.33;;;14.25;;
39524;SDS011;25203;50.754;6.978;2022-07-23T06:04:28;18.08;;;13.50;;
39524;SDS011;25203;50.754;6.978;2022-07-23T06:06:29;19.75;;;15.48;;
39524;SDS011;25203;50.754;6.978;2022-07-23T06:08:30;19.50;;;13.77;;
39524;SDS011;25203;50.754;6.978;2022-07-23T06:10:30;18.85;;;14.57;;
39524;SDS011;25203;50.754;6.978;2022-07-23T06:12:31;22.13;;;16.15;;
39524;SDS011;25203;50.754;6.978;2022-07-23T06:14:31;22.02;;;15.73;;
39524;SDS011;25203;50.754;6.978;2022-07-23T06:16:32;21.52;;;15.30;;
39524;SDS011;25203;50.754;6.978;2022-07-23T06:18:33;19.67;;;15.15;;
39524;SDS011;25203;50.754;6.978;2022-07-23T06:20:33;24.13;;;15.27;;
39524;SDS011;25203;50.754;6.978;2022-07-23T06:22:34;23.58;;;14.95;;
39524;SDS011;25203;50.754;6.978;2022-07-23T06:24:35;21.20;;;15.52;;
39524;SDS011;25203;50.754;6.978;2022-07-23T06:26:36;23.50;;;16.95;;
39524;SDS011;25203;50.754;6.978;2022-07-23T06:28:37;21.60;;;15.73;;
39524;SDS011;25203;50.754;6.978;2022-07-23T06:30:37;25.90;;;16.88;;
39524;SDS011;25203;50.754;6.978;2022-07-23T06:32:38;27.23;;;18.23;;
39524;SDS011;25203;50.754;6.978;2022-07-23T06:34:38;24.90;;;15.88;;
39524;SDS011;25203;50.754;6.978;2022-07-23T06:36:39;23.85;;;17.38;;
39524;SDS011;25203;50.754;6.978;2022-07-23T06:38:40;19.88;;;15.82;;
39524;SDS011;25203;50.754;6.978;2022-07-23T06:40:40;23.15;;;16.98;;
39524;SDS011;25203;50.754;6.978;2022-07-23T06:42:41;18.83;;;15.65;;
39524;SDS011;25203;50.754;6.978;2022-07-23T06:44:42;23.35;;;16.75;;
39524;SDS011;25203;50.754;6.978;2022-07-23T06:46:42;28.33;;;16.52;;
39524;SDS011;25203;50.754;6.978;2022-07-23T06:48:43;20.70;;;15.10;;
39524;SDS011;25203;50.754;6.978;2022-07-23T06:50:43;23.38;;;15.48;;
39524;SDS011;25203;50.754;6.978;2022-07-23T06:52:44;20.85;;;14.13;;
39524;SDS011;25203;50.754;6.978;2022-07-23T06:54:44;18.73;;;14.23;;
39524;SDS011;25203;50.754;6.978;2022-07-23T06:56:45;19.02;;;12.70;;
39524;SDS011;25203;50.754;6.978;2022-07-23T06:58:46;15.63;;;12.55;;
39524;SDS011;25203;50.754;6.978;2022-07-23T07:00:46;17.63;;;12.80;;
39524;SDS011;25203;50.754;6.978;2022-07-23T07:02:47;17.92;;;11.95;;
39524;SDS011;25203;50.754;6.978;2022-07-23T07:04:48;16.13;;;12.05;;
39524;SDS011;25203;50.754;6.978;2022-07-23T07:06:49;17.98;;;11.93;;
39524;SDS011;25203;50.754;6.978;2022-07-23T07:08:50;14.70;;;11.23;;
39524;SDS011;25203;50.754;6.978;2022-07-23T07:10:50;13.40;;;10.85;;
39524;SDS011;25203;50.754;6.978;2022-07-23T07:12:51;17.67;;;12.23;;
39524;SDS011;25203;50.754;6.978;2022-07-23T07:14:51;11.27;;;8.75;;
39524;SDS011;25203;50.754;6.978;2022-07-23T07:16:53;15.43;;;9.30;;
39524;SDS011;25203;50.754;6.978;2022-07-23T07:18:54;14.38;;;9.50;;
39524;SDS011;25203;50.754;6.978;2022-07-23T07:20:54;15.30;;;11.43;;
39524;SDS011;25203;50.754;6.978;2022-07-23T07:22:56;15.25;;;10.52;;
39524;SDS011;25203;50.754;6.978;2022-07-23T07:24:57;16.85;;;11.18;;
39524;SDS011;25203;50.754;6.978;2022-07-23T07:26:57;13.45;;;9.65;;
39524;SDS011;25203;50.754;6.978;2022-07-23T07:28:58;11.95;;;9.30;;
39524;SDS011;25203;50.754;6.978;2022-07-23T07:30:58;10.55;;;8.15;;
39524;SDS011;25203;50.754;6.978;2022-07-23T07:32:59;14.07;;;9.65;;
39524;SDS011;25203;50.754;6.978;2022-07-23T07:35:00;14.15;;;9.38;;
39524;SDS011;25203;50.754;6.978;2022-07-23T07:37:00;12.40;;;9.23;;
39524;SDS011;25203;50.754;6.978;2022-07-23T07:39:01;9.80;;;7.47;;
39524;SDS011;25203;50.754;6.978;2022-07-23T07:41:02;14.43;;;8.48;;
39524;SDS011;25203;50.754;6.978;2022-07-23T07:43:02;13.15;;;9.00;;
39524;SDS011;25203;50.754;6.978;2022-07-23T07:45:03;12.65;;;9.15;;
39524;SDS011;25203;50.754;6.978;2022-07-23T07:47:04;13.18;;;8.32;;
39524;SDS011;25203;50.754;6.978;2022-07-23T07:49:05;11.05;;;8.43;;
39524;SDS011;25203;50.754;6.978;2022-07-23T07:51:05;14.82;;;9.02;;
39524;SDS011;25203;50.754;6.978;2022-07-23T07:53:06;14.25;;;8.23;;
39524;SDS011;25203;50.754;6.978;2022-07-23T07:55:07;12.48;;;9.23;;
39524;SDS011;25203;50.754;6.978;2022-07-23T07:57:09;13.88;;;8.02;;
39524;SDS011;25203;50.754;6.978;2022-07-23T07:59:09;16.92;;;10.75;;
39524;SDS011;25203;50.754;6.978;2022-07-23T08:01:11;16.90;;;10.23;;
39524;SDS011;25203;50.754;6.978;2022-07-23T08:03:11;17.50;;;9.68;;
39524;SDS011;25203;50.754;6.978;2022-07-23T08:05:12;12.15;;;9.35;;
39524;SDS011;25203;50.754;6.978;2022-07-23T08:07:13;14.52;;;10.18;;
39524;SDS011;25203;50.754;6.978;2022-07-23T08:09:14;13.23;;;9.52;;
39524;SDS011;25203;50.754;6.978;2022-07-23T08:11:15;16.05;;;11.02;;
39524;SDS011;25203;50.754;6.978;2022-07-23T08:13:16;12.50;;;10.00;;
39524;SDS011;25203;50.754;6.978;2022-07-23T08:15:17;12.20;;;8.10;;
39524;SDS011;25203;50.754;6.978;2022-07-23T08:17:19;13.98;;;8.38;;
39524;SDS011;25203;50.754;6.978;2022-07-23T08:19:20;13.18;;;9.18;;
39524;SDS011;25203;50.754;6.978;2022-07-23T08:21:20;12.95;;;10.07;;
39524;SDS011;25203;50.754;6.978;2022-07-23T08:23:21;14.75;;;8.90;;
39524;SDS011;25203;50.754;6.978;2022-07-23T08:27:27;10.73;;;7.78;;
39524;SDS011;25203;50.754;6.978;2022-07-23T08:29:27;13.88;;;9.48;;
39524;SDS011;25203;50.754;6.978;2022-07-23T08:31:28;11.80;;;9.05;;
39524;SDS011;25203;50.754;6.978;2022-07-23T08:33:28;8.35;;;7.20;;
39524;SDS011;25203;50.754;6.978;2022-07-23T08:35:31;8.57;;;6.07;;
39524;SDS011;25203;50.754;6.978;2022-07-23T08:37:33;12.45;;;9.30;;
39524;SDS011;25203;50.754;6.978;2022-07-23T08:39:34;13.50;;;9.95;;
39524;SDS011;25203;50.754;6.978;2022-07-23T08:41:34;10.27;;;8.68;;
39524;SDS011;25203;50.754;6.978;2022-07-23T08:43:35;12.52;;;10.57;;
39524;SDS011;25203;50.754;6.978;2022-07-23T08:45:40;11.02;;;9.60;;
39524;SDS011;25203;50.754;6.978;2022-07-23T08:47:42;13.43;;;8.93;;
39524;SDS011;25203;50.754;6.978;2022-07-23T08:49:44;12.85;;;10.82;;
39524;SDS011;25203;50.754;6.978;2022-07-23T08:51:46;13.93;;;11.35;;
39524;SDS011;25203;50.754;6.978;2022-07-23T08:53:47;13.50;;;9.57;;
39524;SDS011;25203;50.754;6.978;2022-07-23T08:55:49;12.93;;;10.00;;
39524;SDS011;25203;50.754;6.978;2022-07-23T08:57:52;10.70;;;9.40;;
39524;SDS011;25203;50.754;6.978;2022-07-23T08:59:53;13.60;;;10.38;;
39524;SDS011;25203;50.754;6.978;2022-07-23T09:01:54;11.88;;;8.70;;
39524;SDS011;25203;50.754;6.978;2022-07-23T09:03:54;13.05;;;8.63;;
39524;SDS011;25203;50.754;6.978;2022-07-23T09:05:56;13.18;;;9.30;;
39524;SDS011;25203;50.754;6.978;2022-07-23T09:10:12;13.93;;;9.35;;
39524;SDS011;25203;50.754;6.978;2022-07-23T09:12:12;14.43;;;9.38;;
39524;SDS011;25203;50.754;6.978;2022-07-23T09:14:14;10.82;;;7.10;;
39524;SDS011;25203;50.754;6.978;2022-07-23T09:16:33;11.38;;;8.25;;
39524;SDS011;25203;50.754;6.978;2022-07-23T09:18:35;8.60;;;6.72;;
39524;SDS011;25203;50.754;6.978;2022-07-23T09:20:41;14.25;;;9.40;;
39524;SDS011;25203;50.754;6.978;2022-07-23T09:22:46;11.15;;;8.48;;
39524;SDS011;25203;50.754;6.978;2022-07-23T09:27:08;12.50;;;8.77;;
39524;SDS011;25203;50.754;6.978;2022-07-23T09:29:12;13.45;;;9.15;;
39524;SDS011;25203;50.754;6.978;2022-07-23T09:31:18;11.70;;;8.70;;
39524;SDS011;25203;50.754;6.978;2022-07-23T09:33:18;14.05;;;8.30;;
39524;SDS011;25203;50.754;6.978;2022-07-23T09:35:22;12.60;;;8.88;;
39524;SDS011;25203;50.754;6.978;2022-07-23T09:38:00;11.48;;;10.20;;
39524;SDS011;25203;50.754;6.978;2022-07-23T09:40:05;11.15;;;9.10;;
39524;SDS011;25203;50.754;6.978;2022-07-23T09:44:22;12.02;;;7.63;;
39524;SDS011;25203;50.754;6.978;2022-07-23T09:46:24;12.55;;;9.27;;
39524;SDS011;25203;50.754;6.978;2022-07-23T09:48:29;10.73;;;7.93;;
39524;SDS011;25203;50.754;6.978;2022-07-23T09:50:29;13.57;;;8.65;;
39524;SDS011;25203;50.754;6.978;2022-07-23T09:52:32;10.00;;;8.13;;
39524;SDS011;25203;50.754;6.978;2022-07-23T09:54:34;7.95;;;5.82;;
39524;SDS011;25203;50.754;6.978;2022-07-23T09:56:37;10.20;;;6.90;;
39524;SDS011;25203;50.754;6.978;2022-07-23T09:58:38;11.63;;;7.88;;
39524;SDS011;25203;50.754;6.978;2022-07-23T10:00:48;12.77;;;6.95;;
39524;SDS011;25203;50.754;6.978;2022-07-23T10:02:49;8.25;;;6.53;;
39524;SDS011;25203;50.754;6.978;2022-07-23T10:04:53;9.30;;;5.90;;
39524;SDS011;25203;50.754;6.978;2022-07-23T10:07:13;8.43;;;6.43;;
39524;SDS011;25203;50.754;6.978;2022-07-23T10:09:16;13.48;;;7.60;;
39524;SDS011;25203;50.754;6.978;2022-07-23T10:11:28;13.30;;;8.68;;
39524;SDS011;25203;50.754;6.978;2022-07-23T10:13:31;10.27;;;7.80;;
39524;SDS011;25203;50.754;6.978;2022-07-23T10:15:51;9.82;;;6.70;;
39524;SDS011;25203;50.754;6.978;2022-07-23T10:17:51;10.15;;;7.45;;
39524;SDS011;25203;50.754;6.978;2022-07-23T10:19:52;11.07;;;7.75;;
39524;SDS011;25203;50.754;6.978;2022-07-23T10:21:54;10.27;;;7.53;;
39524;SDS011;25203;50.754;6.978;2022-07-23T10:27:02;14.07;;;7.78;;
39524;SDS011;25203;50.754;6.978;2022-07-23T10:29:12;8.98;;;4.82;;
39524;SDS011;25203;50.754;6.978;2022-07-23T10:31:17;7.38;;;5.80;;
39524;SDS011;25203;50.754;6.978;2022-07-23T10:35:50;6.75;;;5.13;;
39524;SDS011;25203;50.754;6.978;2022-07-23T10:38:01;10.90;;;5.40;;
39524;SDS011;25203;50.754;6.978;2022-07-23T10:40:18;9.07;;;6.05;;
39524;SDS011;25203;50.754;6.978;2022-07-23T10:42:21;8.82;;;4.95;;
39524;SDS011;25203;50.754;6.978;2022-07-23T10:44:38;6.82;;;4.90;;
39524;SDS011;25203;50.754;6.978;2022-07-23T10:46:54;5.85;;;4.00;;
39524;SDS011;25203;50.754;6.978;2022-07-23T10:49:23;5.72;;;3.47;;
39524;SDS011;25203;50.754;6.978;2022-07-23T10:51:24;8.15;;;6.00;;
39524;SDS011;25203;50.754;6.978;2022-07-23T10:53:27;8.85;;;5.20;;
39524;SDS011;25203;50.754;6.978;2022-07-23T10:57:29;5.43;;;4.65;;
39524;SDS011;25203;50.754;6.978;2022-07-23T10:59:29;8.85;;;5.10;;
39524;SDS011;25203;50.754;6.978;2022-07-23T11:01:37;8.70;;;5.88;;
39524;SDS011;25203;50.754;6.978;2022-07-23T11:03:38;10.10;;;5.90;;
39524;SDS011;25203;50.754;6.978;2022-07-23T11:05:40;7.60;;;6.18;;
39524;SDS011;25203;50.754;6.978;2022-07-23T11:10:04;5.53;;;4.72;;
39524;SDS011;25203;50.754;6.978;2022-07-23T11:14:54;5.53;;;4.25;;
39524;SDS011;25203;50.754;6.978;2022-07-23T11:17:00;5.18;;;4.60;;
39524;SDS011;25203;50.754;6.978;2022-07-23T11:19:03;7.95;;;5.82;;
39524;SDS011;25203;50.754;6.978;2022-07-23T11:23:21;7.13;;;5.03;;
39524;SDS011;25203;50.754;6.978;2022-07-23T11:27:36;6.30;;;4.57;;
39524;SDS011;25203;50.754;6.978;2022-07-23T11:29:45;4.47;;;3.33;;
39524;SDS011;25203;50.754;6.978;2022-07-23T11:34:24;5.85;;;3.72;;
39524;SDS011;25203;50.754;6.978;2022-07-23T11:36:48;7.75;;;4.07;;
39524;SDS011;25203;50.754;6.978;2022-07-23T11:38:49;5.82;;;4.60;;
39524;SDS011;25203;50.754;6.978;2022-07-23T11:40:55;8.82;;;6.10;;
39524;SDS011;25203;50.754;6.978;2022-07-23T11:43:03;6.95;;;6.25;;
39524;SDS011;25203;50.754;6.978;2022-07-23T11:45:08;5.55;;;4.63;;
39524;SDS011;25203;50.754;6.978;2022-07-23T11:47:10;8.70;;;6.22;;
39524;SDS011;25203;50.754;6.978;2022-07-23T11:49:13;5.15;;;4.13;;
39524;SDS011;25203;50.754;6.978;2022-07-23T11:51:24;6.63;;;4.60;;
39524;SDS011;25203;50.754;6.978;2022-07-23T11:53:27;8.77;;;4.82;;
39524;SDS011;25203;50.754;6.978;2022-07-23T11:55:32;5.75;;;3.28;;
39524;SDS011;25203;50.754;6.978;2022-07-23T11:57:34;3.75;;;3.30;;
39524;SDS011;25203;50.754;6.978;2022-07-23T11:59:36;3.15;;;2.67;;
39524;SDS011;25203;50.754;6.978;2022-07-23T12:01:38;6.38;;;4.82;;
39524;SDS011;25203;50.754;6.978;2022-07-23T12:04:05;5.68;;;3.90;;
39524;SDS011;25203;50.754;6.978;2022-07-23T12:06:06;8.15;;;4.25;;
39524;SDS011;25203;50.754;6.978;2022-07-23T12:08:08;4.68;;;3.97;;
39524;SDS011;25203;50.754;6.978;2022-07-23T12:10:11;8.50;;;4.15;;
39524;SDS011;25203;50.754;6.978;2022-07-23T12:12:20;4.45;;;3.95;;
39524;SDS011;25203;50.754;6.978;2022-07-23T12:14:21;4.25;;;3.53;;
39524;SDS011;25203;50.754;6.978;2022-07-23T12:16:22;4.75;;;3.25;;
39524;SDS011;25203;50.754;6.978;2022-07-23T12:18:24;4.28;;;3.63;;
39524;SDS011;25203;50.754;6.978;2022-07-23T12:20:27;4.55;;;3.50;;
39524;SDS011;25203;50.754;6.978;2022-07-23T12:22:38;6.67;;;4.33;;
39524;SDS011;25203;50.754;6.978;2022-07-23T12:27:07;4.68;;;3.10;;
39524;SDS011;25203;50.754;6.978;2022-07-23T12:29:11;4.68;;;3.35;;
39524;SDS011;25203;50.754;6.978;2022-07-23T12:31:11;4.45;;;2.92;;
39524;SDS011;25203;50.754;6.978;2022-07-23T12:33:21;2.80;;;2.30;;